Time;durP1;ratioP1;P1;durP2;ratioP2;P2;SDS_P1;SDS_P2;PMS_P1;PMS_P2;Temp;Humidity;BMP_temperature;BMP_pressure;BME280_temperature;BME280_humidity;BME280_pressure;Samples;Min_cycle;Max_cycle;Signal;HPM_P1;HPM_P2
2023/09/07 00:00:16;;;;;;;8.65;4.30;;;18.00;99.90;;;;;;5095683;28;20652;-84
2023/09/07 00:02:48;;;;;;;10.20;4.50;;;18.20;99.90;;;;;;5095086;28;20204;-83
2023/09/07 00:05:19;;;;;;;10.23;4.60;;;18.30;99.90;;;;;;5076977;28;20217;-80
2023/09/07 00:07:50;;;;;;;8.90;4.50;;;18.40;99.90;;;;;;5077648;28;20204;-78
2023/09/07 00:10:21;;;;;;;9.05;4.72;;;18.40;99.90;;;;;;5074415;28;20661;-82
2023/09/07 00:12:53;;;;;;;13.13;4.05;;;18.60;99.90;;;;;;5089150;28;20208;-79
2023/09/07 00:15:26;;;;;;;7.75;4.10;;;18.70;99.90;;;;;;5095376;28;20197;-79
2023/09/07 00:17:56;;;;;;;8.73;4.07;;;18.80;99.90;;;;;;5095459;28;20650;-78
2023/09/07 00:20:27;;;;;;;6.82;4.00;;;18.90;99.90;;;;;;5071912;28;20193;-77
2023/09/07 00:22:58;;;;;;;7.60;3.30;;;18.90;99.90;;;;;;5094178;28;20193;-79
2023/09/07 00:25:29;;;;;;;11.20;4.32;;;18.80;99.90;;;;;;5093999;28;20212;-81
2023/09/07 00:28:02;;;;;;;7.93;3.58;;;18.90;99.90;;;;;;5091843;28;20554;-76
2023/09/07 00:30:32;;;;;;;7.72;4.13;;;19.00;99.90;;;;;;5084434;28;20699;-78
2023/09/07 00:33:03;;;;;;;6.90;3.67;;;19.10;99.90;;;;;;5091952;28;20200;-80
2023/09/07 00:35:34;;;;;;;6.50;3.38;;;19.40;99.90;;;;;;5094854;28;20203;-78
2023/09/07 00:38:05;;;;;;;8.65;3.58;;;19.70;99.90;;;;;;5095108;28;20193;-78
2023/09/07 00:40:37;;;;;;;8.25;3.55;;;19.90;99.90;;;;;;5094804;28;20275;-78
2023/09/07 00:43:10;;;;;;;8.77;3.72;;;20.10;99.90;;;;;;5074695;28;20193;-79
2023/09/07 00:45:41;;;;;;;7.47;3.30;;;20.30;99.90;;;;;;5081242;28;20216;-80
2023/09/07 00:48:14;;;;;;;5.10;3.33;;;20.50;99.90;;;;;;5093956;28;20641;-77
2023/09/07 00:50:45;;;;;;;6.32;3.42;;;20.70;99.90;;;;;;5080734;28;20196;-78
2023/09/07 00:53:16;;;;;;;6.20;3.22;;;20.90;99.90;;;;;;5086429;28;20204;-78
2023/09/07 00:55:48;;;;;;;6.30;3.33;;;21.00;99.90;;;;;;5094677;28;20655;-79
2023/09/07 00:58:21;;;;;;;6.10;3.28;;;21.20;99.90;;;;;;5094332;28;20534;-78
2023/09/07 01:00:52;;;;;;;7.32;3.17;;;21.40;99.90;;;;;;5094659;28;20192;-79
2023/09/07 01:03:23;;;;;;;10.32;3.45;;;21.50;99.90;;;;;;5094591;28;20668;-78
2023/09/07 01:06:00;;;;;;;6.57;3.60;;;21.60;99.90;;;;;;5093846;28;20556;-79
2023/09/07 01:08:38;;;;;;;6.18;3.47;;;21.90;99.90;;;;;;5093515;28;20624;-80
2023/09/07 01:11:17;;;;;;;6.55;3.47;;;22.00;99.90;;;;;;5093743;28;20192;-79
2023/09/07 01:13:50;;;;;;;4.72;2.90;;;22.20;99.90;;;;;;5093763;28;20195;-79
2023/09/07 01:16:23;;;;;;;8.77;3.67;;;22.50;99.90;;;;;;5093692;28;20200;-81
2023/09/07 01:18:54;;;;;;;7.95;4.50;;;22.70;99.90;;;;;;5093441;28;20188;-81
2023/09/07 01:21:26;;;;;;;9.95;6.22;;;22.80;99.90;;;;;;5080935;28;20200;-78
2023/09/07 01:24:00;;;;;;;22.45;12.38;;;22.90;99.90;;;;;;5083772;28;20195;-82
2023/09/07 01:26:31;;;;;;;24.40;13.63;;;23.00;99.90;;;;;;5070842;28;20224;-81
2023/09/07 01:29:01;;;;;;;28.77;15.38;;;23.00;99.90;;;;;;5089203;28;20200;-81
2023/09/07 01:31:32;;;;;;;29.92;16.95;;;23.00;99.90;;;;;;5087129;28;20220;-78
2023/09/07 01:34:03;;;;;;;29.60;18.20;;;23.10;99.90;;;;;;5093117;28;20200;-79
2023/09/07 01:36:33;;;;;;;27.83;18.15;;;23.30;99.90;;;;;;5092724;28;20195;-79
2023/09/07 01:39:09;;;;;;;24.83;13.70;;;23.40;99.90;;;;;;5091507;28;20210;-80
2023/09/07 01:41:39;;;;;;;24.17;13.25;;;23.40;99.90;;;;;;5081714;28;20188;-81
2023/09/07 01:44:10;;;;;;;20.38;11.52;;;23.30;99.90;;;;;;5090136;28;20199;-78
2023/09/07 01:46:41;;;;;;;20.60;11.70;;;23.40;99.90;;;;;;5087445;28;20216;-83
2023/09/07 01:49:12;;;;;;;30.48;15.63;;;23.50;99.90;;;;;;5092902;28;20228;-79
2023/09/07 01:51:43;;;;;;;44.65;29.08;;;23.60;99.90;;;;;;5093395;28;20232;-78
2023/09/07 01:54:16;;;;;;;36.13;24.40;;;23.80;99.90;;;;;;5085495;28;20188;-77
2023/09/07 01:56:47;;;;;;;27.30;19.67;;;23.80;99.90;;;;;;5079221;28;20318;-76
2023/09/07 01:59:17;;;;;;;23.80;15.63;;;23.80;99.90;;;;;;5089187;28;20668;-76
2023/09/07 02:01:48;;;;;;;21.27;14.07;;;23.90;99.90;;;;;;5087946;28;20200;-76
2023/09/07 02:04:19;;;;;;;18.58;12.27;;;23.90;99.90;;;;;;5078957;28;20200;-77
2023/09/07 02:06:50;;;;;;;22.27;13.70;;;23.90;99.90;;;;;;5087749;28;20263;-77
2023/09/07 02:09:22;;;;;;;20.00;12.27;;;23.80;99.90;;;;;;5093019;28;20221;-76
2023/09/07 02:11:53;;;;;;;16.70;9.38;;;23.70;99.90;;;;;;5093114;28;20188;-77
2023/09/07 02:14:24;;;;;;;13.18;8.07;;;23.70;99.90;;;;;;5092876;28;20180;-78
2023/09/07 02:16:55;;;;;;;11.00;6.22;;;23.40;99.90;;;;;;5092999;28;20191;-77
2023/09/07 02:19:25;;;;;;;13.05;7.28;;;23.20;99.90;;;;;;5088769;28;20189;-77
2023/09/07 02:21:56;;;;;;;12.60;7.90;;;23.20;99.90;;;;;;5072903;28;20193;-76
2023/09/07 02:24:31;;;;;;;16.42;8.50;;;23.10;99.90;;;;;;5084399;28;20585;-76
2023/09/07 02:27:02;;;;;;;14.52;8.05;;;23.20;99.90;;;;;;5085232;28;20224;-76
2023/09/07 02:29:32;;;;;;;16.95;9.80;;;23.30;99.90;;;;;;5092818;28;20192;-76
2023/09/07 02:32:03;;;;;;;20.50;11.80;;;23.30;99.90;;;;;;5092377;28;20203;-78
2023/09/07 02:34:36;;;;;;;15.13;10.57;;;23.30;99.90;;;;;;5091763;28;20225;-76
2023/09/07 02:37:07;;;;;;;17.80;10.32;;;23.40;99.90;;;;;;5092029;28;20725;-76
2023/09/07 02:39:39;;;;;;;19.00;9.70;;;23.60;99.90;;;;;;5092254;28;20557;-76
2023/09/07 02:42:10;;;;;;;15.20;8.88;;;23.60;99.90;;;;;;5072720;28;20197;-77
2023/09/07 02:44:41;;;;;;;18.55;8.98;;;23.50;99.90;;;;;;5078142;28;20556;-75
2023/09/07 02:47:12;;;;;;;14.80;8.30;;;23.50;99.90;;;;;;5092715;28;20582;-75
2023/09/07 02:49:42;;;;;;;14.00;8.43;;;23.40;99.90;;;;;;5092677;28;20192;-75
2023/09/07 02:52:13;;;;;;;14.73;8.77;;;23.40;99.90;;;;;;5092644;28;20232;-77
2023/09/07 02:54:46;;;;;;;15.65;9.02;;;23.50;99.90;;;;;;5092714;28;20185;-77
2023/09/07 02:57:16;;;;;;;16.13;9.02;;;23.50;99.90;;;;;;5092180;28;20192;-76
2023/09/07 02:59:47;;;;;;;18.98;7.57;;;23.60;99.90;;;;;;5092088;28;20192;-77
2023/09/07 03:02:18;;;;;;;12.90;6.80;;;23.60;99.90;;;;;;5092060;28;20188;-75
2023/09/07 03:04:49;;;;;;;15.55;7.30;;;23.60;99.90;;;;;;5092347;28;20196;-76
2023/09/07 03:07:19;;;;;;;12.88;7.05;;;23.60;99.90;;;;;;5090559;28;20307;-76
2023/09/07 03:09:53;;;;;;;10.82;7.30;;;23.60;99.90;;;;;;5073055;28;20196;-74
2023/09/07 03:12:24;;;;;;;12.65;6.85;;;23.70;99.90;;;;;;5077382;28;20189;-76
2023/09/07 03:14:55;;;;;;;13.80;6.80;;;23.70;99.90;;;;;;5088428;28;20208;-75
2023/09/07 03:17:26;;;;;;;13.55;7.00;;;23.80;99.90;;;;;;5092462;28;20556;-75
2023/09/07 03:19:56;;;;;;;13.68;7.40;;;23.70;99.90;;;;;;5095717;28;20192;-75
2023/09/07 03:22:29;;;;;;;12.07;7.03;;;23.60;99.90;;;;;;5096301;28;20202;-76
2023/09/07 03:25:01;;;;;;;11.68;6.75;;;23.60;99.90;;;;;;5095729;28;20196;-76
2023/09/07 03:27:32;;;;;;;13.13;6.47;;;23.60;99.90;;;;;;5095873;28;20243;-76
2023/09/07 03:30:04;;;;;;;12.25;6.15;;;23.50;99.90;;;;;;5095750;28;20648;-76
2023/09/07 03:32:36;;;;;;;11.50;6.05;;;23.30;99.90;;;;;;5095784;28;20204;-77
2023/09/07 03:35:09;;;;;;;12.25;6.32;;;23.10;99.90;;;;;;5092586;28;20196;-77
2023/09/07 03:37:41;;;;;;;13.65;6.97;;;23.10;99.90;;;;;;5095405;28;20195;-77
2023/09/07 03:40:14;;;;;;;14.77;6.50;;;23.00;99.90;;;;;;5076463;28;20200;-76
2023/09/07 03:42:46;;;;;;;14.73;6.60;;;23.10;99.90;;;;;;5075630;28;20225;-76
2023/09/07 03:45:17;;;;;;;13.32;6.93;;;23.10;99.90;;;;;;5077813;28;20192;-76
2023/09/07 03:47:47;;;;;;;12.95;7.55;;;23.10;99.90;;;;;;5094417;28;20212;-77
2023/09/07 03:50:18;;;;;;;13.13;7.97;;;23.20;99.90;;;;;;5091432;28;20222;-76
2023/09/07 03:52:49;;;;;;;17.27;9.27;;;23.30;99.90;;;;;;5095611;28;20702;-77
2023/09/07 03:55:22;;;;;;;19.17;9.30;;;23.40;99.90;;;;;;5095714;28;20613;-77
2023/09/07 03:57:52;;;;;;;14.98;9.13;;;23.40;99.90;;;;;;5094512;28;20671;-77
2023/09/07 04:00:23;;;;;;;17.42;10.20;;;23.40;99.90;;;;;;5095245;28;20195;-76
2023/09/07 04:02:54;;;;;;;15.35;10.45;;;23.40;99.90;;;;;;5095568;28;20279;-77
2023/09/07 04:05:26;;;;;;;21.67;13.35;;;23.40;99.90;;;;;;5095768;28;20556;-77
2023/09/07 04:07:57;;;;;;;17.75;12.63;;;23.50;99.90;;;;;;5095525;28;20216;-75
2023/09/07 04:10:29;;;;;;;19.15;11.38;;;23.50;99.90;;;;;;5095565;28;20272;-76
2023/09/07 04:13:00;;;;;;;18.48;12.35;;;23.40;99.90;;;;;;5095674;28;20196;-76
2023/09/07 04:15:31;;;;;;;21.13;11.93;;;23.40;99.90;;;;;;5095353;28;20188;-76
2023/09/07 04:18:02;;;;;;;20.40;13.52;;;23.40;99.90;;;;;;5091999;28;20192;-77
2023/09/07 04:20:33;;;;;;;17.77;11.25;;;23.40;99.90;;;;;;5095235;28;20188;-76
2023/09/07 04:23:04;;;;;;;17.92;11.25;;;23.40;99.90;;;;;;5095207;28;20188;-77
2023/09/07 04:25:38;;;;;;;14.32;9.45;;;23.40;99.90;;;;;;5095191;28;20196;-76
2023/09/07 04:28:09;;;;;;;13.20;6.97;;;23.50;99.90;;;;;;5094969;28;20216;-76
2023/09/07 04:30:42;;;;;;;16.77;6.95;;;23.50;99.90;;;;;;5095153;28;20188;-76
2023/09/07 04:33:13;;;;;;;11.63;5.53;;;23.40;99.90;;;;;;5095051;28;20200;-77
2023/09/07 04:35:43;;;;;;;12.65;6.30;;;23.40;99.90;;;;;;5095142;28;20192;-76
2023/09/07 04:38:14;;;;;;;9.48;5.60;;;23.40;99.90;;;;;;5094993;28;20199;-77
2023/09/07 04:40:47;;;;;;;10.15;6.55;;;23.40;99.90;;;;;;5094965;28;20189;-78
2023/09/07 04:43:17;;;;;;;9.98;6.25;;;23.40;99.90;;;;;;5090370;28;20252;-76
2023/09/07 04:45:51;;;;;;;12.38;5.07;;;23.50;99.90;;;;;;5074098;28;20204;-77
2023/09/07 04:48:22;;;;;;;9.85;4.93;;;23.40;99.90;;;;;;5076675;28;20212;-76
2023/09/07 04:50:59;;;;;;;7.40;3.83;;;23.40;99.90;;;;;;5080583;28;20209;-77
2023/09/07 04:53:32;;;;;;;8.88;3.72;;;23.50;99.90;;;;;;5094605;28;20196;-76
2023/09/07 04:56:05;;;;;;;7.53;3.80;;;23.50;99.90;;;;;;5094193;28;20200;-77
2023/09/07 04:58:35;;;;;;;9.10;3.60;;;23.60;99.90;;;;;;5092765;28;20185;-79
2023/09/07 05:01:08;;;;;;;7.72;3.50;;;23.60;99.90;;;;;;5093718;28;20191;-78
2023/09/07 05:03:39;;;;;;;9.10;3.47;;;23.70;99.90;;;;;;5093832;28;20274;-77
2023/09/07 05:06:10;;;;;;;7.80;3.45;;;23.70;99.90;;;;;;5094049;28;20196;-79
2023/09/07 05:08:41;;;;;;;10.85;3.38;;;23.60;99.90;;;;;;5089601;28;20216;-77
2023/09/07 05:11:14;;;;;;;6.55;3.17;;;23.50;99.90;;;;;;5093262;28;20644;-78
2023/09/07 05:13:44;;;;;;;10.70;3.72;;;23.40;99.90;;;;;;5092088;28;20196;-78
2023/09/07 05:16:15;;;;;;;8.13;3.88;;;23.30;99.90;;;;;;5093953;28;20188;-78
2023/09/07 05:18:46;;;;;;;6.10;3.38;;;23.30;99.90;;;;;;5094155;28;20572;-78
2023/09/07 05:21:17;;;;;;;7.80;3.42;;;23.30;99.90;;;;;;5094281;28;20549;-78
2023/09/07 05:23:49;;;;;;;9.77;4.05;;;23.10;99.90;;;;;;5077820;28;20185;-77
2023/09/07 05:26:25;;;;;;;8.63;3.72;;;23.00;99.90;;;;;;5089011;28;20224;-78
2023/09/07 05:28:56;;;;;;;8.27;3.95;;;23.00;99.90;;;;;;5093730;28;20211;-79
2023/09/07 05:31:26;;;;;;;11.93;4.10;;;23.00;99.90;;;;;;5088050;28;20192;-79
2023/09/07 05:33:57;;;;;;;6.65;4.22;;;23.00;99.90;;;;;;5093794;28;20188;-78
2023/09/07 05:36:28;;;;;;;7.75;3.80;;;23.10;99.90;;;;;;5092525;28;20184;-78
2023/09/07 05:38:59;;;;;;;7.75;4.03;;;23.00;99.90;;;;;;5093485;28;20192;-78
2023/09/07 05:41:31;;;;;;;7.88;4.53;;;23.10;99.90;;;;;;5092553;28;20533;-78
2023/09/07 05:44:02;;;;;;;8.40;4.03;;;23.10;99.90;;;;;;5093939;28;20193;-78
2023/09/07 05:46:33;;;;;;;8.80;3.90;;;23.00;99.90;;;;;;5093961;28;20192;-76
2023/09/07 05:49:04;;;;;;;10.70;4.15;;;23.00;99.90;;;;;;5088197;28;20224;-78
2023/09/07 05:51:35;;;;;;;8.25;3.85;;;23.00;99.90;;;;;;5092949;28;20236;-79
2023/09/07 05:54:06;;;;;;;14.02;4.30;;;23.00;99.90;;;;;;5093356;28;20226;-77
2023/09/07 05:56:39;;;;;;;8.68;4.00;;;22.90;99.90;;;;;;5093431;28;20549;-78
2023/09/07 05:59:09;;;;;;;8.02;3.83;;;22.80;99.90;;;;;;5093378;28;20188;-78
2023/09/07 06:01:41;;;;;;;8.15;3.88;;;22.90;99.90;;;;;;5093448;28;20184;-79
2023/09/07 06:04:12;;;;;;;9.32;3.67;;;22.90;99.90;;;;;;5093270;28;20208;-77
2023/09/07 06:06:42;;;;;;;10.63;3.90;;;22.90;99.90;;;;;;5093401;28;20192;-79
2023/09/07 06:09:13;;;;;;;8.55;3.83;;;22.80;99.90;;;;;;5087334;28;20204;-77
2023/09/07 06:11:46;;;;;;;13.65;4.63;;;22.80;99.90;;;;;;5089532;28;20219;-77
2023/09/07 06:14:16;;;;;;;11.93;3.80;;;22.90;99.90;;;;;;5092714;28;20192;-77
2023/09/07 06:16:47;;;;;;;6.47;3.60;;;22.80;99.90;;;;;;5093115;28;20218;-77
2023/09/07 06:19:18;;;;;;;9.52;3.63;;;22.80;99.90;;;;;;5093185;28;20568;-77
2023/09/07 06:21:49;;;;;;;7.53;3.60;;;22.80;99.90;;;;;;5092908;28;20566;-77
2023/09/07 06:24:19;;;;;;;8.05;3.42;;;22.80;99.90;;;;;;5092915;28;20658;-77
2023/09/07 06:26:52;;;;;;;8.85;3.63;;;22.80;99.90;;;;;;5092680;28;20700;-76
2023/09/07 06:29:23;;;;;;;9.52;3.67;;;22.80;99.90;;;;;;5089370;28;20216;-75
2023/09/07 06:31:54;;;;;;;9.73;3.30;;;22.80;99.90;;;;;;5090231;28;20203;-77
2023/09/07 06:34:24;;;;;;;9.18;3.40;;;22.70;99.90;;;;;;5093128;28;20195;-79
2023/09/07 06:36:55;;;;;;;10.90;3.83;;;22.70;99.90;;;;;;5088996;28;20188;-76
2023/09/07 06:39:26;;;;;;;13.27;4.07;;;22.60;99.90;;;;;;5087096;28;20551;-78
2023/09/07 06:41:58;;;;;;;9.80;3.63;;;22.60;99.90;;;;;;5080461;28;20199;-77
2023/09/07 06:44:29;;;;;;;9.13;3.83;;;22.50;99.90;;;;;;5092727;28;20551;-76
2023/09/07 06:47:00;;;;;;;10.00;3.70;;;22.50;99.90;;;;;;5082715;28;20196;-77
2023/09/07 06:49:31;;;;;;;9.15;3.60;;;22.40;99.90;;;;;;5088838;28;20196;-76
2023/09/07 06:52:02;;;;;;;10.18;3.72;;;22.30;99.90;;;;;;5094064;28;20233;-75
2023/09/07 06:54:33;;;;;;;12.23;3.80;;;22.20;99.90;;;;;;5078635;28;20718;-76
2023/09/07 06:57:08;;;;;;;9.63;3.28;;;22.20;99.90;;;;;;5094533;28;20196;-76
2023/09/07 06:59:39;;;;;;;9.82;3.60;;;22.10;99.90;;;;;;5076408;28;20188;-76
2023/09/07 07:02:10;;;;;;;12.57;4.10;;;22.10;99.90;;;;;;5074975;28;20279;-77
2023/09/07 07:04:40;;;;;;;11.05;3.25;;;22.00;99.90;;;;;;5081653;28;20192;-76
2023/09/07 07:07:11;;;;;;;9.50;3.50;;;22.00;99.90;;;;;;5096483;28;20203;-75
2023/09/07 07:09:42;;;;;;;13.30;3.97;;;22.00;99.90;;;;;;5094869;28;20203;-76
2023/09/07 07:12:15;;;;;;;11.95;4.15;;;21.90;99.90;;;;;;5093019;28;20192;-75
2023/09/07 07:14:46;;;;;;;11.02;3.53;;;21.90;99.90;;;;;;5096322;28;20195;-76
2023/09/07 07:17:16;;;;;;;9.68;3.50;;;21.80;99.90;;;;;;5096013;28;20192;-76
2023/09/07 07:19:47;;;;;;;13.30;3.80;;;21.80;99.90;;;;;;5095781;28;20195;-78
2023/09/07 07:22:18;;;;;;;11.90;3.80;;;21.70;99.90;;;;;;5076176;28;20200;-77
2023/09/07 07:24:49;;;;;;;11.05;3.33;;;21.70;99.90;;;;;;5076134;28;20189;-78
2023/09/07 07:27:21;;;;;;;12.60;3.53;;;21.60;99.90;;;;;;5076052;28;20185;-77
2023/09/07 07:29:56;;;;;;;10.57;3.83;;;21.60;99.90;;;;;;5085090;28;20219;-78
2023/09/07 07:32:27;;;;;;;13.45;3.58;;;21.50;99.90;;;;;;5075940;28;20561;-78
2023/09/07 07:34:57;;;;;;;14.38;3.97;;;21.50;99.90;;;;;;5076097;28;20664;-78
2023/09/07 07:37:28;;;;;;;12.82;3.80;;;21.40;99.90;;;;;;5075794;28;20188;-78
2023/09/07 07:39:59;;;;;;;16.35;3.67;;;21.40;99.90;;;;;;5083020;28;20180;-78
2023/09/07 07:42:32;;;;;;;12.07;3.35;;;21.30;99.90;;;;;;5079292;28;20184;-77
2023/09/07 07:45:03;;;;;;;10.80;3.88;;;21.30;99.90;;;;;;5095553;28;20193;-78
2023/09/07 07:47:33;;;;;;;9.68;3.58;;;21.20;99.90;;;;;;5095526;28;20241;-78
2023/09/07 07:50:04;;;;;;;13.02;3.58;;;21.20;99.90;;;;;;5088428;28;20196;-77
2023/09/07 07:52:35;;;;;;;14.63;3.75;;;21.10;99.90;;;;;;5091816;28;20232;-77
2023/09/07 07:55:06;;;;;;;14.45;4.00;;;21.10;99.90;;;;;;5091474;28;20631;-76
2023/09/07 07:57:39;;;;;;;12.85;3.78;;;21.00;99.90;;;;;;5093523;28;20267;-78
2023/09/07 08:00:11;;;;;;;13.15;3.70;;;21.00;99.90;;;;;;5093526;28;20192;-77
2023/09/07 08:02:41;;;;;;;15.18;3.85;;;21.00;99.90;;;;;;5083858;28;20196;-78
2023/09/07 08:05:12;;;;;;;15.00;4.30;;;21.00;99.90;;;;;;5081499;28;20196;-78
2023/09/07 08:07:43;;;;;;;14.63;4.00;;;20.90;99.90;;;;;;5092154;28;20192;-77
2023/09/07 08:10:14;;;;;;;14.70;4.00;;;20.90;99.90;;;;;;5086785;28;20564;-77
2023/09/07 08:12:47;;;;;;;12.52;3.63;;;20.90;99.90;;;;;;5092488;28;20199;-78
2023/09/07 08:15:20;;;;;;;18.00;3.78;;;20.90;99.90;;;;;;5094725;28;20203;-78
2023/09/07 08:17:51;;;;;;;9.20;3.30;;;20.80;99.90;;;;;;5094824;28;20204;-77
2023/09/07 08:20:21;;;;;;;14.05;3.95;;;20.80;99.90;;;;;;5091464;28;20197;-77
2023/09/07 08:22:52;;;;;;;15.15;4.10;;;20.80;99.90;;;;;;5094319;28;20719;-77
2023/09/07 08:25:23;;;;;;;12.60;3.63;;;20.70;99.90;;;;;;5091069;28;20227;-77
2023/09/07 08:27:58;;;;;;;11.85;3.95;;;20.70;99.90;;;;;;5091078;28;20211;-77
2023/09/07 08:30:29;;;;;;;8.40;3.60;;;20.70;99.90;;;;;;5080613;28;20207;-77
2023/09/07 08:33:02;;;;;;;9.23;3.90;;;20.60;99.90;;;;;;5093321;28;20265;-76
2023/09/07 08:35:35;;;;;;;10.45;4.13;;;20.60;99.90;;;;;;5095720;28;20196;-78
2023/09/07 08:38:08;;;;;;;11.02;3.85;;;20.60;99.90;;;;;;5092562;28;20204;-77
2023/09/07 08:40:40;;;;;;;11.63;3.50;;;20.60;99.90;;;;;;5091000;28;20603;-78
2023/09/07 08:43:14;;;;;;;12.68;3.88;;;20.60;99.90;;;;;;5094281;28;20670;-77
2023/09/07 08:45:53;;;;;;;7.75;3.75;;;20.70;99.90;;;;;;5094354;28;20283;-78
2023/09/07 08:48:25;;;;;;;10.63;3.92;;;20.70;99.90;;;;;;5089979;28;20217;-77
2023/09/07 08:50:56;;;;;;;9.32;3.60;;;20.70;99.90;;;;;;5093232;28;20200;-77
2023/09/07 08:53:27;;;;;;;11.88;3.80;;;20.70;99.90;;;;;;5092094;28;20630;-78
2023/09/07 08:55:59;;;;;;;10.23;3.88;;;20.80;99.90;;;;;;5090669;28;20188;-77
2023/09/07 08:58:31;;;;;;;9.23;4.30;;;20.80;99.90;;;;;;5089752;28;20237;-77
2023/09/07 09:01:02;;;;;;;11.10;4.03;;;20.90;99.90;;;;;;5094188;28;20200;-78
2023/09/07 09:03:34;;;;;;;11.60;4.63;;;20.90;99.90;;;;;;5094215;28;20234;-77
2023/09/07 09:06:05;;;;;;;9.50;3.83;;;20.90;99.90;;;;;;5093652;28;20254;-77
2023/09/07 09:08:47;;;;;;;11.20;4.15;;;21.00;99.90;;;;;;5094025;28;20216;-77
2023/09/07 09:11:18;;;;;;;8.30;3.92;;;21.00;99.90;;;;;;5085744;28;20246;-78
2023/09/07 09:13:52;;;;;;;11.00;3.83;;;21.00;99.90;;;;;;5089991;28;20226;-78
2023/09/07 09:16:23;;;;;;;10.90;4.47;;;21.00;99.90;;;;;;5093542;28;20497;-76
2023/09/07 09:18:54;;;;;;;8.25;3.92;;;21.00;99.90;;;;;;5093660;28;20660;-77
2023/09/07 09:21:25;;;;;;;8.35;4.00;;;21.00;99.90;;;;;;5093271;28;20189;-77
2023/09/07 09:23:58;;;;;;;8.30;3.80;;;21.00;99.90;;;;;;5093437;28;20222;-76
2023/09/07 09:26:29;;;;;;;10.45;4.20;;;21.00;99.90;;;;;;5093305;28;20229;-79
2023/09/07 09:29:04;;;;;;;8.55;3.60;;;21.00;99.90;;;;;;5087033;28;20227;-77
2023/09/07 09:31:44;;;;;;;11.65;3.80;;;21.00;99.90;;;;;;5087701;28;20192;-80
2023/09/07 09:34:15;;;;;;;8.98;3.47;;;21.10;99.90;;;;;;5087096;28;20200;-80
2023/09/07 09:36:46;;;;;;;8.23;4.00;;;21.10;99.90;;;;;;5092680;28;20192;-80
2023/09/07 09:39:26;;;;;;;8.45;3.50;;;21.10;99.90;;;;;;5093435;28;20195;-80
2023/09/07 09:41:57;;;;;;;8.43;4.05;;;21.20;99.90;;;;;;5092900;28;20203;-79
2023/09/07 09:44:33;;;;;;;6.88;3.78;;;21.20;99.90;;;;;;5093175;28;20196;-77
2023/09/07 09:47:03;;;;;;;7.60;3.45;;;21.10;99.90;;;;;;5092761;28;20207;-78
2023/09/07 09:49:35;;;;;;;10.05;4.50;;;21.10;99.90;;;;;;5093925;28;20222;-80
2023/09/07 09:52:06;;;;;;;8.40;4.15;;;21.10;99.90;;;;;;5095648;28;20228;-78
2023/09/07 09:54:39;;;;;;;12.27;5.20;;;21.10;99.90;;;;;;5088263;28;20659;-80
2023/09/07 09:57:15;;;;;;;13.15;7.60;;;21.10;99.90;;;;;;5092877;28;20614;-80
2023/09/07 09:59:48;;;;;;;13.80;8.82;;;21.10;99.90;;;;;;5074734;28;20222;-81
2023/09/07 10:02:20;;;;;;;20.23;11.70;;;21.00;99.90;;;;;;5092422;28;20209;-80
2023/09/07 10:04:51;;;;;;;28.95;15.73;;;21.00;99.90;;;;;;5088341;28;20199;-78
2023/09/07 10:07:31;;;;;;;29.65;18.95;;;21.10;99.90;;;;;;5092706;28;20200;-79
2023/09/07 10:10:03;;;;;;;36.33;22.17;;;21.20;99.90;;;;;;5089122;28;20714;-82
2023/09/07 10:12:41;;;;;;;47.58;26.90;;;21.20;99.90;;;;;;5089814;28;20200;-79
2023/09/07 10:15:27;;;;;;;44.65;29.45;;;21.30;99.90;;;;;;5079859;28;20219;-78
2023/09/07 10:18:12;;;;;;;56.72;34.83;;;21.40;99.90;;;;;;5092554;28;20203;-79
2023/09/07 10:20:58;;;;;;;61.70;37.50;;;21.40;99.90;;;;;;5092620;28;20254;-77
2023/09/07 10:23:40;;;;;;;65.05;40.78;;;21.50;99.90;;;;;;5081084;28;20628;-79
2023/09/07 10:26:15;;;;;;;68.85;41.08;;;21.50;99.90;;;;;;5089805;28;20216;-77
2023/09/07 10:28:47;;;;;;;68.93;41.13;;;21.60;99.90;;;;;;5083921;28;20215;-76
2023/09/07 10:31:21;;;;;;;68.13;41.70;;;21.60;99.90;;;;;;5091860;28;20200;-78
2023/09/07 10:33:52;;;;;;;69.65;42.28;;;21.60;99.90;;;;;;5092566;28;20196;-78
2023/09/07 10:36:27;;;;;;;71.28;41.17;;;21.70;99.90;;;;;;5091718;28;20655;-79
2023/09/07 10:38:59;;;;;;;62.80;39.17;;;21.70;99.90;;;;;;5091110;28;20286;-78
2023/09/07 10:41:30;;;;;;;64.63;39.03;;;21.70;99.90;;;;;;5082799;28;20566;-78
2023/09/07 10:44:06;;;;;;;62.33;38.30;;;21.80;99.90;;;;;;5092317;28;20555;-75
2023/09/07 10:46:40;;;;;;;62.45;37.17;;;21.70;99.90;;;;;;5092741;28;20253;-79
2023/09/07 10:49:13;;;;;;;61.58;36.97;;;21.70;99.90;;;;;;5091892;28;20214;-77
2023/09/07 10:51:46;;;;;;;59.80;36.63;;;21.80;99.90;;;;;;5092410;28;20282;-74
2023/09/07 10:54:18;;;;;;;59.60;36.25;;;21.80;99.90;;;;;;5092696;28;20200;-80
2023/09/07 10:56:50;;;;;;;58.55;36.28;;;21.80;99.90;;;;;;5092267;28;20196;-81
2023/09/07 10:59:21;;;;;;;60.08;36.65;;;21.80;99.90;;;;;;5092224;28;20206;-78
2023/09/07 11:01:53;;;;;;;60.53;36.95;;;21.90;99.90;;;;;;5091529;28;20258;-76
2023/09/07 11:04:24;;;;;;;59.90;35.60;;;21.90;99.90;;;;;;5091988;28;20200;-75
2023/09/07 11:06:55;;;;;;;55.00;35.03;;;21.90;99.90;;;;;;5092229;28;20200;-76
2023/09/07 11:09:26;;;;;;;55.15;33.88;;;21.90;99.90;;;;;;5083035;28;20220;-79
2023/09/07 11:11:56;;;;;;;54.35;31.92;;;22.00;99.90;;;;;;5080137;28;20203;-75
2023/09/07 11:14:33;;;;;;;52.30;31.58;;;22.00;99.90;;;;;;5085354;28;20193;-79
2023/09/07 11:17:06;;;;;;;48.17;29.70;;;22.00;99.90;;;;;;5092330;28;20587;-74
2023/09/07 11:19:37;;;;;;;44.20;28.05;;;22.10;99.90;;;;;;5087975;28;20196;-76
2023/09/07 11:22:13;;;;;;;43.08;26.45;;;22.10;99.90;;;;;;5091509;28;20570;-80
2023/09/07 11:24:47;;;;;;;41.78;24.17;;;22.20;99.90;;;;;;5091734;28;20273;-82
2023/09/07 11:27:21;;;;;;;40.22;23.05;;;22.20;99.90;;;;;;5090846;28;20196;-85
2023/09/07 11:29:58;;;;;;;33.60;20.48;;;22.30;99.90;;;;;;5087412;28;20587;-81
2023/09/07 11:32:40;;;;;;;31.38;19.20;;;22.40;99.90;;;;;;5091492;28;20204;-82
2023/09/07 11:35:13;;;;;;;27.25;16.83;;;22.50;99.90;;;;;;5095510;28;20203;-81
2023/09/07 11:37:44;;;;;;;28.23;16.77;;;22.60;99.90;;;;;;5095729;28;20203;-82
2023/09/07 11:40:15;;;;;;;23.25;13.68;;;22.60;99.90;;;;;;5095931;28;20196;-82
2023/09/07 11:42:46;;;;;;;23.50;13.20;;;22.70;99.90;;;;;;5094685;28;20200;-79
2023/09/07 11:45:18;;;;;;;19.58;11.63;;;22.80;99.90;;;;;;5084338;28;20198;-82
2023/09/07 11:47:50;;;;;;;16.70;9.95;;;22.90;99.90;;;;;;5089565;28;20227;-81
2023/09/07 11:50:22;;;;;;;13.32;8.02;;;22.90;99.90;;;;;;5095539;28;20687;-80
2023/09/07 11:52:53;;;;;;;12.60;6.72;;;23.00;99.90;;;;;;5095976;28;20250;-81
2023/09/07 11:55:24;;;;;;;10.18;5.90;;;23.10;99.90;;;;;;5095522;28;20200;-79
2023/09/07 11:57:55;;;;;;;10.93;5.25;;;23.20;99.90;;;;;;5096045;28;20204;-79
2023/09/07 12:00:25;;;;;;;10.63;5.28;;;23.20;99.90;;;;;;5095327;28;20198;-80
2023/09/07 12:02:58;;;;;;;7.22;4.18;;;23.20;99.90;;;;;;5092162;28;20231;-80
2023/09/07 12:05:29;;;;;;;5.72;3.78;;;23.30;99.90;;;;;;5095144;28;20200;-81
2023/09/07 12:08:00;;;;;;;6.43;3.67;;;23.30;99.90;;;;;;5093716;28;20184;-80
2023/09/07 12:10:31;;;;;;;5.40;3.50;;;23.30;99.90;;;;;;5095130;28;20216;-79
2023/09/07 12:13:01;;;;;;;7.18;3.47;;;23.40;99.90;;;;;;5095205;28;20195;-80
2023/09/07 12:15:32;;;;;;;5.50;3.03;;;23.50;99.90;;;;;;5094828;28;20211;-81
2023/09/07 12:18:05;;;;;;;3.67;2.72;;;23.50;99.90;;;;;;5092952;28;20192;-81
2023/09/07 12:20:36;;;;;;;8.00;2.90;;;23.70;99.90;;;;;;5075223;28;20193;-80
2023/09/07 12:23:07;;;;;;;4.85;2.75;;;23.80;99.90;;;;;;5074685;28;20266;-80
2023/09/07 12:25:38;;;;;;;5.32;2.90;;;23.90;99.90;;;;;;5074886;28;20221;-88
2023/09/07 12:28:09;;;;;;;14.13;3.25;;;24.00;99.90;;;;;;5075031;28;20193;-77
2023/09/07 12:30:40;;;;;;;13.00;2.50;;;24.30;99.90;;;;;;5074999;28;20582;-78
2023/09/07 12:33:12;;;;;;;5.88;2.25;;;24.40;99.90;;;;;;5074856;28;20193;-78
2023/09/07 12:35:43;;;;;;;10.45;2.00;;;24.20;99.90;;;;;;5082226;28;20207;-78
2023/09/07 12:38:17;;;;;;;5.60;1.80;;;24.00;99.90;;;;;;5090322;28;20196;-78
2023/09/07 12:40:48;;;;;;;11.90;1.70;;;23.70;99.90;;;;;;5092894;28;20195;-78
2023/09/07 12:43:18;;;;;;;5.88;1.75;;;23.50;99.90;;;;;;5094800;28;20564;-78
2023/09/07 12:45:49;;;;;;;5.05;1.90;;;23.30;99.90;;;;;;5093308;28;20191;-80
2023/09/07 12:48:22;;;;;;;5.18;1.38;;;23.10;99.90;;;;;;5094593;28;20215;-81
2023/09/07 12:50:53;;;;;;;4.00;1.45;;;23.00;99.90;;;;;;5093123;28;20219;-79
2023/09/07 12:53:25;;;;;;;3.35;1.15;;;22.90;99.90;;;;;;5094477;28;20200;-76
2023/09/07 12:55:56;;;;;;;2.22;1.00;;;22.80;99.90;;;;;;5094022;28;20188;-77
2023/09/07 12:58:27;;;;;;;3.17;1.20;;;22.60;99.90;;;;;;5094598;28;20203;-79
2023/09/07 13:00:58;;;;;;;2.47;1.25;;;22.50;99.90;;;;;;5093610;28;20203;-83